CheckWX is a tool to help pilots better visualize weather data.  It is not intended as a substitute for an official pre-flight weather briefing.

02:26:29 UTC

KEWK METAR
Newton-City-County Airport
Newton, Kansas, USA
Current

30 mins ago

KEWK 180156Z AUTO 33016G21KT 10SM CLR M07/M10 A3013 RMK AO2 SLP224 T10671100 FZRANO
Observed
Feb-18 @ 01:56 UTC
Wind
  • 330° at 16 KTS
  • Gusting to 21 KTS
Visibility
10 SM
Flight Rules
VFR
Cloud Levels
  • Clear skies
Temperature
-7°C / 19°F
Dewpoint
-10°C / 14°F
Humidity
79%
Altimeter
30.13" Hg
Pressure
1022.4 hPa
Previous

2 hours ago

KEWK 180056Z AUTO 33015KT 10SM CLR M06/M09 A3011 RMK AO2 SLP217 T10561094 FZRANO
Observed
Feb-18 @ 00:56 UTC
Wind
  • 330° at 15 KTS
Visibility
10 SM
Flight Rules
VFR
Cloud Levels
  • Clear skies
Temperature
-6°C / 21°F
Dewpoint
-9°C / 16°F
Humidity
80%
Altimeter
30.11" Hg
Pressure
1021.7 hPa
Previous

3 hours ago

KEWK 172356Z AUTO 33017G21KT 10SM CLR M04/M09 A3007 RMK AO2 SLP201 T10441094 11006 21044 53022 FZRANO
Observed
Feb-17 @ 23:56 UTC
Wind
  • 330° at 17 KTS
  • Gusting to 21 KTS
Visibility
10 SM
Flight Rules
VFR
Cloud Levels
  • Clear skies
Temperature
-4°C / 25°F
Dewpoint
-9°C / 16°F
Humidity
69%
Altimeter
30.07" Hg
Pressure
1020.1 hPa